Dog Valley, California Weather observations

Data are for 10 minute period ending at time listed.
 Day   Time    Ave.   Ave.  Ave.  Vector   Max.   Total    Solar   
  of    of     Air    Rel.  Wind   Wind    Wind  Precip.   Rad.    
Year   Day     Temp.  Hum.  Speed  Dir.    Gust                    
2016   (PST)    F      %     mph   deg.    mph     in.     W/m2    
------------------------------------------------------------------- 
 269    7:00   39.0    62    0.0   246      3.0    5.32      15  
 269    8:00   58.0    33    2.0    38      4.0    5.32     176  
 269    9:00   66.0    21    2.0    87      8.0    5.32     464  
 269   10:00   68.0    20    3.0   124      9.0    5.32     300  
 269   11:00   72.0    17    2.0   111      7.0    5.32     740  
 269   12:00   74.0    16    3.0   122      7.0    5.32     613  
 269   13:00   75.0    15    3.0   117      8.0    5.32     824  
 269   14:00   77.0    15    3.0   111      8.0    5.32     766  
 269   15:00   76.0    13    2.0   115     11.0    5.32     648  
 269   16:00   71.0    15    2.0    82      7.0    5.32      86  
 269   17:00   67.0    18    1.0   131      6.0    5.32      60  
 269   18:00   62.0    20    0.0   309      4.0    5.32       9  
 269   19:00   53.0    29    0.0   279      3.0    5.32       1  
 269   20:00   49.0    32    0.0   276      3.0    5.32       0  
 269   21:00   46.0    36    0.0   282      2.0    5.32       0  
 269   22:00   44.0    39    0.0   255      1.0    5.32       0  
 269   23:00   43.0    41    0.0   253      3.0    5.32       0  
 270    0:00   42.0    43    0.0   293      2.0    5.32       0  
 270    1:00   41.0    44    0.0   258      2.0    5.32       0  
 270    2:00   40.0    47    0.0   282      2.0    5.32       0  
 270    3:00   39.0    51    0.0   273      1.0    5.32       0  
 270    4:00   38.0    54    0.0   237      1.0    5.32       0  
 270    5:00   37.0    56    0.0   300      2.0    5.32       0  
 270    6:00   37.0    57    0.0   277      3.0    5.32       0  

Return to Dog Valley, California graphs page.


Western Regional Climate Center,wrcc@dri.edu